createdAt,value
2017-12-23T00:02:09.088Z,10.90
2017-12-23T00:04:36.706Z,10.90
2017-12-23T00:07:04.286Z,10.80
2017-12-23T00:09:31.852Z,10.80
2017-12-23T00:11:59.429Z,10.80
2017-12-23T00:14:27.045Z,10.80
2017-12-23T00:16:54.554Z,10.90
2017-12-23T00:19:22.169Z,10.90
2017-12-23T00:21:49.766Z,10.90
2017-12-23T00:24:17.336Z,10.90
2017-12-23T00:26:44.925Z,10.90
2017-12-23T00:29:12.522Z,10.90
2017-12-23T00:31:40.102Z,10.90
2017-12-23T00:34:07.665Z,10.90
2017-12-23T00:36:35.245Z,10.90
2017-12-23T00:39:02.779Z,10.90
2017-12-23T00:41:30.307Z,10.90
2017-12-23T00:43:57.867Z,10.80
2017-12-23T00:46:25.397Z,10.80
2017-12-23T00:48:52.956Z,10.90
2017-12-23T00:51:21.293Z,10.90
2017-12-23T00:53:48.855Z,10.90
2017-12-23T00:56:16.392Z,10.90
2017-12-23T00:58:43.958Z,10.90
2017-12-23T01:01:11.484Z,10.80
2017-12-23T01:03:39.043Z,10.90
2017-12-23T01:06:06.607Z,10.90
2017-12-23T01:08:34.174Z,10.90
2017-12-23T01:11:01.752Z,10.90
2017-12-23T01:13:29.293Z,10.90
2017-12-23T01:15:56.823Z,11.00
2017-12-23T01:18:24.411Z,11.00
2017-12-23T01:20:51.974Z,10.90
2017-12-23T01:23:19.537Z,11.00
2017-12-23T01:25:47.136Z,11.00
2017-12-23T01:28:14.922Z,11.00
2017-12-23T01:30:43.140Z,11.00
2017-12-23T01:33:11.905Z,11.00
2017-12-23T01:35:39.591Z,11.00
2017-12-23T01:38:07.173Z,11.00
2017-12-23T01:40:34.738Z,11.00
2017-12-23T01:43:02.278Z,11.00
2017-12-23T01:45:29.835Z,11.00
2017-12-23T01:47:57.360Z,11.00
2017-12-23T01:50:25.083Z,10.90
2017-12-23T01:52:52.659Z,10.90
2017-12-23T01:55:20.460Z,10.90
2017-12-23T01:57:48.764Z,11.00
2017-12-23T02:00:16.327Z,11.00
2017-12-23T02:02:43.864Z,11.00
2017-12-23T02:05:11.429Z,11.00
2017-12-23T02:07:38.998Z,11.00
2017-12-23T02:10:06.534Z,11.00
2017-12-23T02:12:34.069Z,11.00
2017-12-23T02:15:01.628Z,11.00
2017-12-23T02:17:29.152Z,11.00
2017-12-23T02:19:56.706Z,11.00
2017-12-23T02:22:24.274Z,11.10
2017-12-23T02:24:51.811Z,11.00
2017-12-23T02:27:19.373Z,11.00
2017-12-23T02:29:46.932Z,11.10
2017-12-23T02:32:14.471Z,11.10
2017-12-23T02:34:42.009Z,11.10
2017-12-23T02:37:09.572Z,11.10
2017-12-23T02:39:37.112Z,11.00
2017-12-23T02:42:04.738Z,11.00
2017-12-23T02:44:32.296Z,11.00
2017-12-23T02:46:59.821Z,11.00
2017-12-23T02:49:27.382Z,11.00
2017-12-23T02:51:54.940Z,10.90
2017-12-23T02:54:22.479Z,11.00
2017-12-23T02:56:50.069Z,11.00
2017-12-23T02:59:17.633Z,11.10
2017-12-23T03:01:45.210Z,11.10
2017-12-23T03:04:13.534Z,11.10
2017-12-23T03:06:41.069Z,11.00
2017-12-23T03:09:08.673Z,11.10
2017-12-23T03:11:36.251Z,11.00
2017-12-23T03:14:04.596Z,11.00
2017-12-23T03:16:32.136Z,11.00
2017-12-23T03:18:59.698Z,11.00
2017-12-23T03:21:27.237Z,11.10
2017-12-23T03:23:54.797Z,11.10
2017-12-23T03:26:22.395Z,11.10
2017-12-23T03:28:50.063Z,11.10
2017-12-23T03:31:17.610Z,11.20
2017-12-23T03:33:45.915Z,11.20
2017-12-23T03:36:13.525Z,11.10
2017-12-23T03:38:41.067Z,11.10
2017-12-23T03:41:08.633Z,11.10
2017-12-23T03:43:36.212Z,11.10
2017-12-23T03:46:03.813Z,11.00
2017-12-23T03:48:31.362Z,11.10
2017-12-23T03:50:58.960Z,11.10
2017-12-23T03:53:26.514Z,11.10
2017-12-23T03:55:54.093Z,11.20
2017-12-23T03:58:21.658Z,11.10
2017-12-23T04:00:49.206Z,11.10
2017-12-23T04:03:16.789Z,11.10
2017-12-23T04:05:44.368Z,11.10
2017-12-23T04:08:11.910Z,11.00
2017-12-23T04:10:39.475Z,11.00
2017-12-23T04:13:07.092Z,11.00
2017-12-23T04:15:34.672Z,11.00
2017-12-23T04:18:02.202Z,11.00
2017-12-23T04:20:29.763Z,11.00
2017-12-23T04:22:57.341Z,11.00
2017-12-23T04:25:24.922Z,11.00
2017-12-23T04:27:52.498Z,11.00
2017-12-23T04:30:20.102Z,11.00
2017-12-23T04:32:47.696Z,11.10
2017-12-23T04:35:15.238Z,11.00
2017-12-23T04:37:42.812Z,11.00
2017-12-23T04:40:10.340Z,11.00
2017-12-23T04:42:38.657Z,11.10
2017-12-23T04:45:06.231Z,11.00
2017-12-23T04:47:33.818Z,11.00
2017-12-23T04:50:01.407Z,11.10
2017-12-23T04:52:28.963Z,11.10
2017-12-23T04:54:56.510Z,11.10
2017-12-23T04:57:24.856Z,11.10
2017-12-23T04:59:52.433Z,11.10
2017-12-23T05:02:19.997Z,11.10
2017-12-23T05:04:47.524Z,11.00
2017-12-23T05:07:15.098Z,11.00
2017-12-23T05:09:42.641Z,11.10
2017-12-23T05:12:10.210Z,11.00
2017-12-23T05:14:37.791Z,11.00
2017-12-23T05:17:05.326Z,11.10
2017-12-23T05:19:32.908Z,11.10
2017-12-23T05:22:00.501Z,11.10
2017-12-23T05:24:28.870Z,11.20
2017-12-23T05:26:56.454Z,11.10
2017-12-23T05:29:24.032Z,11.10
2017-12-23T05:31:51.611Z,11.10
2017-12-23T05:34:19.161Z,11.10
2017-12-23T05:36:46.694Z,11.00
2017-12-23T05:39:14.278Z,11.00
2017-12-23T05:41:41.839Z,11.10
2017-12-23T05:44:09.471Z,11.10
2017-12-23T05:46:37.246Z,11.10
2017-12-23T05:49:04.826Z,11.10
2017-12-23T05:51:32.370Z,11.00
2017-12-23T05:54:00.041Z,11.00
2017-12-23T05:56:27.584Z,11.00
2017-12-23T05:58:55.133Z,11.10
2017-12-23T06:01:22.710Z,11.10
2017-12-23T06:03:50.286Z,11.10
2017-12-23T06:06:17.842Z,11.10
2017-12-23T06:08:46.188Z,11.10
2017-12-23T06:11:13.756Z,11.10
2017-12-23T06:13:41.325Z,11.10
2017-12-23T06:16:08.925Z,11.10
2017-12-23T06:18:36.583Z,11.20
2017-12-23T06:21:04.118Z,11.20
2017-12-23T06:23:31.678Z,11.20
2017-12-23T06:25:59.253Z,11.20
2017-12-23T06:28:27.051Z,11.10
2017-12-23T06:30:55.397Z,11.20
2017-12-23T06:33:22.938Z,11.20
2017-12-23T06:35:50.518Z,11.20
2017-12-23T06:38:18.064Z,11.20
2017-12-23T06:40:45.644Z,11.10
2017-12-23T06:43:13.229Z,11.10
2017-12-23T06:45:41.578Z,11.10
2017-12-23T06:48:09.129Z,11.10
2017-12-23T06:50:36.707Z,11.20
2017-12-23T06:53:04.254Z,11.20
2017-12-23T06:55:31.893Z,11.20
2017-12-23T06:57:59.437Z,11.10
2017-12-23T07:00:27.009Z,11.10
2017-12-23T07:02:54.582Z,11.10
2017-12-23T07:05:22.122Z,11.10
2017-12-23T07:07:49.700Z,11.10
2017-12-23T07:10:17.331Z,11.10
2017-12-23T07:12:44.912Z,11.10
2017-12-23T07:15:12.454Z,11.10
2017-12-23T07:17:40.036Z,11.10
2017-12-23T07:20:07.605Z,11.10
2017-12-23T07:22:35.150Z,11.10
2017-12-23T07:25:02.776Z,11.10
2017-12-23T07:27:31.166Z,11.10
2017-12-23T07:29:58.765Z,11.10
2017-12-23T07:32:26.353Z,11.10
2017-12-23T07:34:53.905Z,11.10
2017-12-23T07:37:21.450Z,11.00
2017-12-23T07:39:49.809Z,11.00
2017-12-23T07:42:17.803Z,11.00
2017-12-23T07:44:45.393Z,11.00
2017-12-23T07:47:12.978Z,11.00
2017-12-23T07:49:40.554Z,11.00
2017-12-23T07:52:08.151Z,11.10
2017-12-23T07:54:35.722Z,11.00
2017-12-23T07:57:03.305Z,11.00
2017-12-23T07:59:30.863Z,11.00
2017-12-23T08:01:59.189Z,11.00
2017-12-23T08:04:26.798Z,11.00
2017-12-23T08:06:54.377Z,11.00
2017-12-23T08:09:21.941Z,10.90
2017-12-23T08:11:49.510Z,11.00
2017-12-23T08:14:17.105Z,10.90
2017-12-23T08:16:44.699Z,11.00
2017-12-23T08:19:12.320Z,11.10
2017-12-23T08:21:39.935Z,11.00
2017-12-23T08:24:07.544Z,11.00
2017-12-23T08:26:35.161Z,11.00
2017-12-23T08:29:02.753Z,11.10
2017-12-23T08:31:30.332Z,11.00
2017-12-23T08:33:57.913Z,11.00
2017-12-23T08:36:25.870Z,11.00
2017-12-23T08:38:53.426Z,11.00
2017-12-23T08:41:20.973Z,11.00
2017-12-23T08:43:48.548Z,11.00
2017-12-23T08:46:16.126Z,11.00
2017-12-23T08:48:43.712Z,11.00
2017-12-23T08:51:11.338Z,11.00
2017-12-23T08:53:38.897Z,10.90
2017-12-23T08:56:06.470Z,10.90
2017-12-23T08:58:34.882Z,11.10
2017-12-23T09:01:02.458Z,11.00
2017-12-23T09:03:30.055Z,11.10
2017-12-23T09:05:57.605Z,11.10
2017-12-23T09:08:25.158Z,11.10
2017-12-23T09:10:52.768Z,11.10
2017-12-23T09:13:20.313Z,11.10
2017-12-23T09:15:47.894Z,11.10
2017-12-23T09:18:15.433Z,11.20
2017-12-23T09:20:43.000Z,11.20
2017-12-23T09:23:10.573Z,11.10
2017-12-23T09:25:38.150Z,11.10
2017-12-23T09:28:05.733Z,11.10
2017-12-23T09:30:33.361Z,11.10
2017-12-23T09:33:00.893Z,11.10
2017-12-23T09:35:28.489Z,11.10
2017-12-23T09:37:56.035Z,11.20
2017-12-23T09:40:23.616Z,11.20
2017-12-23T09:42:51.180Z,11.20
2017-12-23T09:45:18.821Z,11.20
2017-12-23T09:47:46.399Z,11.10
2017-12-23T09:50:13.943Z,11.10
2017-12-23T09:52:41.570Z,11.10
2017-12-23T09:55:09.137Z,11.10
2017-12-23T09:57:36.685Z,11.00
2017-12-23T10:00:04.327Z,11.10
2017-12-23T10:02:31.901Z,11.20
2017-12-23T10:04:59.491Z,11.20
2017-12-23T10:07:27.064Z,11.20
2017-12-23T10:09:54.650Z,11.20
2017-12-23T10:12:22.249Z,11.20
2017-12-23T10:14:49.884Z,11.20
2017-12-23T10:17:17.437Z,11.10
2017-12-23T10:19:44.998Z,11.20
2017-12-23T10:22:12.581Z,11.20
2017-12-23T10:24:40.127Z,11.20
2017-12-23T10:27:07.701Z,11.10
2017-12-23T10:29:35.268Z,11.10
2017-12-23T10:32:02.858Z,11.20
2017-12-23T10:34:30.454Z,11.20
2017-12-23T10:36:57.998Z,11.20
2017-12-23T10:39:25.616Z,11.20
2017-12-23T10:41:53.175Z,11.20
2017-12-23T10:44:21.492Z,11.10
2017-12-23T10:46:49.070Z,11.10
2017-12-23T10:49:16.657Z,11.20
2017-12-23T10:51:44.233Z,11.20
2017-12-23T10:54:12.580Z,11.20
2017-12-23T10:56:40.148Z,11.10
2017-12-23T10:59:07.686Z,11.20
2017-12-23T11:01:35.263Z,11.20
2017-12-23T11:04:02.838Z,11.30
2017-12-23T11:06:30.413Z,11.20
2017-12-23T11:08:57.997Z,11.30
2017-12-23T11:11:26.014Z,11.30
2017-12-23T11:13:53.606Z,11.20
2017-12-23T11:16:21.910Z,11.20
2017-12-23T11:18:49.442Z,11.20
2017-12-23T11:21:17.029Z,11.20
2017-12-23T11:23:44.590Z,11.20
2017-12-23T11:26:12.149Z,11.20
2017-12-23T11:28:39.796Z,11.20
2017-12-23T11:31:08.111Z,11.20
2017-12-23T11:33:35.713Z,11.20
2017-12-23T11:36:03.245Z,11.20
2017-12-23T11:38:30.777Z,11.20
2017-12-23T11:40:58.399Z,11.20
2017-12-23T11:43:25.983Z,11.20
2017-12-23T11:45:53.540Z,11.20
2017-12-23T11:48:21.876Z,11.30
2017-12-23T11:50:49.440Z,11.30
2017-12-23T11:53:16.974Z,11.40
2017-12-23T11:55:44.548Z,11.40
2017-12-23T11:58:12.124Z,11.40
2017-12-23T12:00:39.739Z,11.40
2017-12-23T12:03:07.329Z,11.40
2017-12-23T12:05:34.864Z,11.40
2017-12-23T12:08:02.437Z,11.40
2017-12-23T12:10:30.019Z,11.50
2017-12-23T12:12:57.594Z,11.40
2017-12-23T12:15:25.136Z,11.40
2017-12-23T12:17:52.702Z,11.40
2017-12-23T12:20:20.283Z,11.40
2017-12-23T12:22:47.809Z,11.40
2017-12-23T12:25:15.390Z,11.40
2017-12-23T12:27:42.928Z,11.40
2017-12-23T12:30:10.490Z,11.40
2017-12-23T12:32:38.094Z,11.40
2017-12-23T12:35:05.680Z,11.40
2017-12-23T12:37:33.281Z,11.40
2017-12-23T12:40:00.837Z,11.40
2017-12-23T12:42:29.362Z,11.30
2017-12-23T12:44:56.945Z,11.40
2017-12-23T12:47:24.529Z,11.30
2017-12-23T12:49:52.065Z,11.30
2017-12-23T12:52:19.625Z,11.30
2017-12-23T12:54:47.207Z,11.40
2017-12-23T12:57:14.793Z,11.30
2017-12-23T12:59:42.372Z,11.20
2017-12-23T13:02:09.915Z,11.20
2017-12-23T13:04:37.492Z,11.20
2017-12-23T13:07:05.024Z,11.20
2017-12-23T13:09:32.561Z,11.10
2017-12-23T13:12:00.118Z,11.20
2017-12-23T13:14:27.646Z,11.20
2017-12-23T13:16:55.213Z,11.30
2017-12-23T13:19:22.770Z,11.30
2017-12-23T13:21:50.303Z,11.40
2017-12-23T13:24:17.884Z,11.40
2017-12-23T13:26:45.413Z,11.40
2017-12-23T13:29:13.795Z,11.30
2017-12-23T13:31:42.094Z,11.30
2017-12-23T13:34:09.628Z,11.30
2017-12-23T13:36:37.979Z,11.40
2017-12-23T13:39:05.633Z,11.40
2017-12-23T13:41:33.157Z,11.40
2017-12-23T13:44:00.796Z,11.40
2017-12-23T13:46:28.338Z,11.40
2017-12-23T13:48:55.911Z,11.40
2017-12-23T13:51:23.491Z,11.40
2017-12-23T13:53:51.099Z,11.40
2017-12-23T13:56:18.635Z,11.40
2017-12-23T13:58:46.190Z,11.40
2017-12-23T14:01:13.827Z,11.50
2017-12-23T14:03:42.117Z,11.50
2017-12-23T14:06:09.689Z,11.50
2017-12-23T14:08:37.259Z,11.40
2017-12-23T14:11:04.857Z,11.30
2017-12-23T14:13:32.418Z,11.30
2017-12-23T14:15:59.976Z,11.30
2017-12-23T14:18:27.549Z,11.30
2017-12-23T14:20:55.845Z,11.30
2017-12-23T14:23:23.423Z,11.30
2017-12-23T14:25:51.017Z,11.30
2017-12-23T14:28:18.582Z,11.30
2017-12-23T14:30:46.151Z,11.30
2017-12-23T14:33:13.719Z,11.30
2017-12-23T14:35:41.315Z,11.30
2017-12-23T14:38:08.903Z,11.40
2017-12-23T14:40:36.444Z,11.40
2017-12-23T14:43:04.027Z,11.40
2017-12-23T14:45:31.596Z,11.40
2017-12-23T14:47:59.131Z,11.30
2017-12-23T14:50:26.746Z,11.40
2017-12-23T14:52:54.274Z,11.40
2017-12-23T14:55:21.854Z,11.40
2017-12-23T14:57:49.460Z,11.40
2017-12-23T15:00:16.986Z,11.40
2017-12-23T15:02:44.581Z,11.40
2017-12-23T15:05:12.142Z,11.30
2017-12-23T15:07:39.670Z,11.30
2017-12-23T15:10:07.279Z,11.30
2017-12-23T15:12:34.818Z,11.30
2017-12-23T15:15:02.387Z,11.30
2017-12-23T15:17:29.957Z,11.20
2017-12-23T15:19:57.543Z,11.20
2017-12-23T15:22:25.146Z,11.20
2017-12-23T15:24:52.713Z,11.20
2017-12-23T15:27:20.254Z,11.20
2017-12-23T15:29:47.828Z,11.20
2017-12-23T15:32:15.362Z,11.20
2017-12-23T15:34:44.127Z,11.10
2017-12-23T15:37:11.690Z,11.00
2017-12-23T15:39:39.311Z,11.10
2017-12-23T15:42:06.842Z,11.00
2017-12-23T15:44:34.645Z,11.00
2017-12-23T15:47:02.183Z,11.10
2017-12-23T15:49:29.777Z,11.10
2017-12-23T15:51:57.350Z,11.10
2017-12-23T15:54:24.918Z,11.10
2017-12-23T15:56:52.543Z,11.10
2017-12-23T15:59:20.070Z,11.10
2017-12-23T16:01:48.414Z,11.10
2017-12-23T16:04:15.994Z,11.10
2017-12-23T16:06:43.592Z,11.10
2017-12-23T16:09:11.129Z,11.10
2017-12-23T16:11:39.477Z,11.10
2017-12-23T16:14:07.069Z,11.10
2017-12-23T16:16:34.758Z,11.10
2017-12-23T16:19:02.296Z,11.00
2017-12-23T16:21:29.895Z,11.00
2017-12-23T16:23:57.473Z,11.10
2017-12-23T16:26:25.023Z,11.10
2017-12-23T16:28:52.582Z,11.10
2017-12-23T16:31:20.168Z,11.10
2017-12-23T16:33:47.896Z,11.10
2017-12-23T16:36:15.446Z,11.10
2017-12-23T16:38:43.019Z,11.10
2017-12-23T16:41:10.582Z,11.20
2017-12-23T16:43:38.154Z,11.20
2017-12-23T16:46:06.531Z,11.20
2017-12-23T16:48:34.064Z,11.20
2017-12-23T16:51:01.642Z,11.20
2017-12-23T16:53:29.214Z,11.20
2017-12-23T16:55:56.782Z,11.20
2017-12-23T16:58:24.362Z,11.10
2017-12-23T17:00:51.911Z,11.10
2017-12-23T17:03:19.441Z,11.20
2017-12-23T17:05:47.038Z,11.20
2017-12-23T17:08:14.565Z,11.10
2017-12-23T17:10:42.902Z,11.20
2017-12-23T17:13:10.472Z,11.10
2017-12-23T17:15:38.059Z,11.20
2017-12-23T17:18:05.675Z,11.10
2017-12-23T17:20:33.244Z,11.20
2017-12-23T17:23:00.857Z,11.20
2017-12-23T17:25:28.441Z,11.20
2017-12-23T17:27:55.989Z,11.20
2017-12-23T17:30:30.361Z,11.10
2017-12-23T17:32:57.926Z,11.20
2017-12-23T17:35:25.491Z,11.20
2017-12-23T17:37:53.041Z,11.20
2017-12-23T17:40:20.610Z,11.10
2017-12-23T17:42:48.197Z,11.10
2017-12-23T17:45:15.819Z,11.10
2017-12-23T17:47:43.391Z,11.10
2017-12-23T17:50:11.001Z,11.10
2017-12-23T17:52:39.376Z,11.10
2017-12-23T17:55:07.798Z,11.10
2017-12-23T17:57:36.183Z,11.00
2017-12-23T18:00:03.745Z,11.00
2017-12-23T18:02:31.368Z,11.10
2017-12-23T18:04:59.758Z,11.20
2017-12-23T18:07:27.458Z,11.10
2017-12-23T18:09:55.037Z,11.10
2017-12-23T18:12:22.658Z,11.20
2017-12-23T18:14:50.194Z,11.10
2017-12-23T18:17:18.896Z,11.20
2017-12-23T18:19:46.509Z,11.10
2017-12-23T18:22:14.100Z,11.20
2017-12-23T18:24:41.705Z,11.10
2017-12-23T18:27:09.313Z,11.00
2017-12-23T18:29:37.642Z,11.00
2017-12-23T18:32:05.245Z,11.00
2017-12-23T18:34:32.832Z,11.00
2017-12-23T18:37:00.421Z,11.10
2017-12-23T18:39:28.037Z,11.00
2017-12-23T18:41:55.620Z,11.10
2017-12-23T18:44:23.184Z,11.10
2017-12-23T18:46:50.771Z,11.10
2017-12-23T18:49:18.399Z,11.10
2017-12-23T18:51:45.996Z,11.10
2017-12-23T18:54:13.594Z,11.10
2017-12-23T18:56:41.222Z,11.00
2017-12-23T18:59:08.804Z,11.00
2017-12-23T19:01:36.387Z,11.00
2017-12-23T19:04:03.960Z,11.10
2017-12-23T19:06:31.538Z,11.10
2017-12-23T19:08:59.114Z,11.00
2017-12-23T19:11:26.750Z,11.00
2017-12-23T19:13:54.338Z,11.00
2017-12-23T19:16:33.609Z,11.00
2017-12-23T19:19:01.208Z,11.10
2017-12-23T19:21:28.825Z,11.00
2017-12-23T19:23:56.462Z,11.10
2017-12-23T19:26:24.062Z,11.00
2017-12-23T19:28:51.735Z,11.00
2017-12-23T19:31:20.081Z,11.00
2017-12-23T19:33:47.707Z,11.00
2017-12-23T19:36:15.305Z,11.00
2017-12-23T19:38:42.941Z,10.90
2017-12-23T19:41:10.646Z,10.90
2017-12-23T19:43:38.241Z,11.00
2017-12-23T19:46:05.874Z,11.00
2017-12-23T19:48:33.480Z,11.00
2017-12-23T19:51:01.083Z,11.00
2017-12-23T19:53:28.717Z,11.00
2017-12-23T19:55:56.321Z,11.00
2017-12-23T19:58:23.949Z,11.00
2017-12-23T20:00:51.532Z,11.00
2017-12-23T20:03:19.161Z,11.00
2017-12-23T20:05:46.742Z,10.90
2017-12-23T20:08:14.344Z,10.90
2017-12-23T20:10:41.934Z,11.00
2017-12-23T20:13:09.723Z,11.00
2017-12-23T20:15:37.342Z,11.00
2017-12-23T20:18:04.910Z,11.00
2017-12-23T20:20:32.490Z,10.90
2017-12-23T20:23:00.874Z,11.00
2017-12-23T20:25:29.225Z,11.10
2017-12-23T20:27:56.872Z,11.00
2017-12-23T20:30:24.461Z,11.10
2017-12-23T20:32:52.094Z,11.10
2017-12-23T20:35:19.697Z,11.10
2017-12-23T20:37:47.286Z,11.00
2017-12-23T20:40:15.701Z,10.90
2017-12-23T20:42:43.286Z,10.90
2017-12-23T20:45:10.877Z,10.90
2017-12-23T20:47:38.509Z,10.90
2017-12-23T20:50:06.105Z,10.90
2017-12-23T20:52:34.419Z,10.90
2017-12-23T20:55:02.042Z,10.90
2017-12-23T20:57:30.345Z,10.90
2017-12-23T20:59:57.971Z,10.90
2017-12-23T21:02:25.546Z,10.90
2017-12-23T21:04:53.946Z,10.90
2017-12-23T21:07:21.572Z,10.80
2017-12-23T21:09:49.186Z,10.80
2017-12-23T21:12:16.821Z,10.70
2017-12-23T21:14:44.443Z,10.70
2017-12-23T21:17:11.977Z,10.80
2017-12-23T21:19:39.609Z,10.90
2017-12-23T21:22:07.252Z,10.80
2017-12-23T21:24:34.897Z,10.80
2017-12-23T21:27:02.487Z,10.80
2017-12-23T21:29:30.099Z,10.90
2017-12-23T21:31:57.726Z,10.90
2017-12-23T21:34:25.292Z,10.90
2017-12-23T21:36:52.905Z,10.90
2017-12-23T21:39:20.486Z,10.90
2017-12-23T21:41:48.121Z,10.90
2017-12-23T21:44:15.700Z,10.90
2017-12-23T21:46:44.101Z,11.00
2017-12-23T21:49:11.694Z,10.90
2017-12-23T21:51:39.310Z,11.00
2017-12-23T21:54:07.664Z,10.90
2017-12-23T21:56:35.290Z,10.90
2017-12-23T21:59:02.898Z,10.90
2017-12-23T22:01:31.253Z,10.90
2017-12-23T22:03:59.030Z,10.90
2017-12-23T22:06:26.775Z,10.80
2017-12-23T22:08:54.432Z,10.80
2017-12-23T22:11:22.031Z,10.80
2017-12-23T22:13:50.419Z,10.90
2017-12-23T22:16:18.049Z,10.90
2017-12-23T22:18:45.688Z,10.90
2017-12-23T22:21:13.394Z,10.90
2017-12-23T22:23:41.799Z,10.80
2017-12-23T22:26:10.374Z,10.80
2017-12-23T22:28:37.996Z,10.70
2017-12-23T22:31:05.644Z,10.60
2017-12-23T22:33:33.375Z,10.60
2017-12-23T22:36:00.967Z,10.60
2017-12-23T22:38:28.589Z,10.70
2017-12-23T22:40:56.232Z,10.70
2017-12-23T22:43:23.846Z,10.70
2017-12-23T22:45:51.532Z,10.70
2017-12-23T22:48:19.122Z,10.60
2017-12-23T22:50:47.550Z,10.70
2017-12-23T22:53:15.169Z,10.70
2017-12-23T22:55:42.765Z,10.70
2017-12-23T22:58:10.343Z,10.70
2017-12-23T23:00:38.730Z,10.70
2017-12-23T23:03:06.297Z,10.70
2017-12-23T23:05:34.665Z,10.70
2017-12-23T23:08:02.293Z,10.70
2017-12-23T23:10:29.893Z,10.70
2017-12-23T23:12:57.486Z,10.70
2017-12-23T23:15:25.118Z,10.60
2017-12-23T23:17:52.750Z,10.60
2017-12-23T23:20:20.335Z,10.60
2017-12-23T23:22:47.960Z,10.60
2017-12-23T23:25:15.565Z,10.70
2017-12-23T23:27:43.148Z,10.70
2017-12-23T23:30:10.754Z,10.70
2017-12-23T23:32:38.372Z,10.70
2017-12-23T23:35:05.943Z,10.70
2017-12-23T23:37:33.528Z,10.70
2017-12-23T23:40:01.135Z,10.60
2017-12-23T23:42:28.717Z,10.70
2017-12-23T23:44:57.698Z,10.70
2017-12-23T23:47:26.053Z,10.60
2017-12-23T23:49:53.593Z,10.60
2017-12-23T23:52:21.169Z,10.60
2017-12-23T23:54:48.710Z,10.60
2017-12-23T23:57:16.283Z,10.60
2017-12-23T23:59:43.860Z,10.70
